Time;durP1;ratioP1;P1;durP2;ratioP2;P2;SDS_P1;SDS_P2;PMS_P1;PMS_P2;Temp;Humidity;BMP_temperature;BMP_pressure;BME280_temperature;BME280_humidity;BME280_pressure;Samples;Min_cycle;Max_cycle;Signal;HPM_P1;HPM_P2
2022/01/29 00:01:03;;;;;;;21.33;12.07;;;6.30;99.90;;;;;;5050561;28;20409;-68
2022/01/29 00:03:32;;;;;;;17.23;11.60;;;6.30;99.90;;;;;;5049022;28;20202;-67
2022/01/29 00:05:59;;;;;;;16.23;11.33;;;6.30;99.90;;;;;;5049425;28;20209;-69
2022/01/29 00:08:25;;;;;;;19.03;12.17;;;6.30;99.90;;;;;;5049934;28;20925;-68
2022/01/29 00:10:56;;;;;;;16.73;11.27;;;6.40;99.90;;;;;;5040151;28;20429;-68
2022/01/29 00:13:21;;;;;;;19.00;12.30;;;6.40;99.90;;;;;;5030252;28;20424;-67
2022/01/29 00:15:47;;;;;;;18.00;11.90;;;6.40;99.90;;;;;;5030169;28;20429;-68
2022/01/29 00:18:12;;;;;;;16.43;11.27;;;6.40;99.90;;;;;;5029488;28;20522;-68
2022/01/29 00:20:38;;;;;;;18.50;11.13;;;6.30;99.90;;;;;;5065836;22;20320;-70
2022/01/29 00:23:04;;;;;;;18.13;12.03;;;6.40;99.90;;;;;;5065538;28;20205;-69
2022/01/29 00:25:29;;;;;;;26.80;15.60;;;6.40;99.90;;;;;;5057989;28;20434;-70
2022/01/29 00:27:57;;;;;;;22.40;13.90;;;6.50;99.90;;;;;;5068089;28;20209;-71
2022/01/29 00:30:29;;;;;;;24.97;13.77;;;6.50;99.90;;;;;;5068656;28;20185;-71
2022/01/29 00:32:55;;;;;;;19.10;13.60;;;6.40;99.90;;;;;;5068494;28;20887;-72
2022/01/29 00:35:20;;;;;;;22.80;14.50;;;6.40;99.90;;;;;;5052179;28;20522;-71
2022/01/29 00:37:47;;;;;;;20.73;13.90;;;6.40;99.90;;;;;;5048356;28;20209;-70
2022/01/29 00:40:12;;;;;;;22.17;14.10;;;6.40;99.90;;;;;;5048583;28;20951;-71
2022/01/29 00:42:38;;;;;;;23.47;14.50;;;6.50;99.90;;;;;;5048163;28;20529;-71
2022/01/29 00:45:04;;;;;;;22.07;14.00;;;6.50;99.90;;;;;;5048461;28;20227;-71
2022/01/29 00:47:29;;;;;;;18.87;13.20;;;6.60;99.90;;;;;;5029998;28;20647;-71
2022/01/29 00:49:55;;;;;;;21.03;13.67;;;6.50;99.90;;;;;;5049181;28;20476;-71
2022/01/29 00:52:21;;;;;;;23.20;14.63;;;6.60;99.90;;;;;;5048489;28;20282;-70
2022/01/29 00:54:46;;;;;;;21.97;15.03;;;6.40;99.90;;;;;;5039895;28;20428;-71
2022/01/29 00:57:15;;;;;;;24.00;15.10;;;6.50;99.90;;;;;;5041340;28;20182;-71
2022/01/29 00:59:41;;;;;;;23.07;14.70;;;6.50;99.90;;;;;;5042695;28;20561;-71
2022/01/29 01:02:09;;;;;;;20.87;15.00;;;6.50;99.90;;;;;;5043446;28;20463;-71
2022/01/29 01:04:38;;;;;;;23.97;15.07;;;6.50;99.90;;;;;;5041697;28;20417;-71
2022/01/29 01:07:05;;;;;;;28.50;15.70;;;6.50;99.90;;;;;;5042935;28;20417;-71
2022/01/29 01:09:31;;;;;;;33.87;18.90;;;6.50;99.90;;;;;;5047008;28;21029;-71
2022/01/29 01:11:56;;;;;;;28.80;17.20;;;6.50;99.90;;;;;;5048400;28;20425;-71
2022/01/29 01:14:22;;;;;;;26.73;16.87;;;6.50;99.90;;;;;;5048919;28;20223;-71
2022/01/29 01:16:47;;;;;;;28.90;17.63;;;6.50;99.90;;;;;;5047374;28;20186;-70
2022/01/29 01:19:13;;;;;;;24.27;16.60;;;6.50;99.90;;;;;;5049240;28;20225;-71
2022/01/29 01:21:38;;;;;;;26.97;16.53;;;6.60;99.90;;;;;;5050177;28;20217;-70
2022/01/29 01:24:04;;;;;;;24.43;17.23;;;6.60;99.90;;;;;;5049968;28;20248;-70
2022/01/29 01:26:30;;;;;;;24.13;15.93;;;6.60;99.90;;;;;;5051977;28;20162;-71
2022/01/29 01:28:55;;;;;;;32.53;16.87;;;6.60;99.90;;;;;;5055366;28;20171;-70
2022/01/29 01:31:21;;;;;;;25.40;17.73;;;6.60;99.90;;;;;;5056195;28;20650;-71
2022/01/29 01:33:47;;;;;;;24.77;17.10;;;6.60;99.90;;;;;;5052242;28;20263;-70
2022/01/29 01:36:14;;;;;;;26.43;17.70;;;6.60;99.90;;;;;;5054354;28;20178;-71
2022/01/29 01:38:46;;;;;;;27.23;16.23;;;6.60;99.90;;;;;;5054904;28;20937;-70
2022/01/29 01:41:15;;;;;;;32.90;18.50;;;6.60;99.90;;;;;;5054957;28;20864;-71
2022/01/29 01:43:41;;;;;;;25.30;15.77;;;6.50;99.90;;;;;;5069682;28;20439;-70
2022/01/29 01:46:06;;;;;;;26.50;16.90;;;6.60;99.90;;;;;;5074716;28;20780;-70
2022/01/29 01:48:32;;;;;;;29.60;17.90;;;6.60;99.90;;;;;;5074756;28;20185;-71
2022/01/29 01:50:58;;;;;;;28.00;16.53;;;6.60;99.90;;;;;;5074818;28;20653;-71
2022/01/29 01:53:24;;;;;;;26.10;16.60;;;6.60;99.90;;;;;;5057647;28;20183;-71
2022/01/29 01:55:50;;;;;;;26.27;15.10;;;6.60;99.90;;;;;;5054235;28;20404;-71
2022/01/29 01:58:16;;;;;;;25.20;17.10;;;6.60;99.90;;;;;;5053022;28;20983;-71
2022/01/29 02:00:42;;;;;;;26.00;15.87;;;6.60;99.90;;;;;;5036458;28;20440;-71
2022/01/29 02:03:09;;;;;;;23.63;16.87;;;6.60;99.90;;;;;;5054906;28;20463;-71
2022/01/29 02:05:34;;;;;;;25.70;15.63;;;6.60;99.90;;;;;;5054245;28;20419;-71
2022/01/29 02:08:02;;;;;;;25.50;16.23;;;6.70;99.90;;;;;;5054616;28;20512;-72
2022/01/29 02:10:28;;;;;;;25.50;15.67;;;6.60;99.90;;;;;;5054593;28;20530;-71
2022/01/29 02:12:57;;;;;;;28.50;18.23;;;6.70;99.90;;;;;;5055139;28;20408;-71
2022/01/29 02:15:24;;;;;;;30.33;17.60;;;6.70;99.90;;;;;;5058460;28;20416;-71
2022/01/29 02:17:50;;;;;;;28.90;17.00;;;6.60;99.90;;;;;;5058514;28;20425;-71
2022/01/29 02:20:19;;;;;;;28.03;16.20;;;6.60;99.90;;;;;;5053855;28;20534;-71
2022/01/29 02:22:45;;;;;;;25.90;17.53;;;6.60;99.90;;;;;;5054118;28;20460;-72
2022/01/29 02:25:35;;;;;;;32.73;18.27;;;6.60;99.90;;;;;;5055510;28;20493;-72
2022/01/29 02:28:18;;;;;;;25.90;15.47;;;6.60;99.90;;;;;;5053948;28;20801;-72
2022/01/29 02:30:48;;;;;;;28.23;15.40;;;6.70;99.90;;;;;;5034648;28;20437;-72
2022/01/29 02:33:16;;;;;;;24.00;15.97;;;6.70;99.90;;;;;;5016498;28;20882;-72
2022/01/29 02:35:46;;;;;;;25.83;16.50;;;6.70;99.90;;;;;;5041398;28;20431;-72
2022/01/29 02:38:14;;;;;;;22.37;15.60;;;6.70;99.90;;;;;;5051045;28;20432;-71
2022/01/29 02:40:46;;;;;;;22.50;16.07;;;6.70;99.90;;;;;;5071783;28;21001;-71
2022/01/29 02:43:28;;;;;;;24.53;15.80;;;6.70;99.90;;;;;;5072060;28;20834;-70
2022/01/29 02:45:54;;;;;;;28.50;16.83;;;6.70;99.90;;;;;;5037749;28;20421;-69
2022/01/29 02:48:22;;;;;;;25.80;16.70;;;6.60;99.90;;;;;;5072091;28;20766;-72
2022/01/29 02:50:49;;;;;;;25.00;16.97;;;6.70;99.90;;;;;;5069971;28;20469;-72
2022/01/29 02:53:15;;;;;;;24.20;17.27;;;6.70;99.90;;;;;;5065403;28;20867;-70
2022/01/29 02:55:40;;;;;;;27.63;16.93;;;6.70;99.90;;;;;;5052976;28;20451;-70
2022/01/29 02:58:07;;;;;;;28.80;16.50;;;6.70;99.90;;;;;;5053391;28;20416;-71
2022/01/29 03:00:32;;;;;;;31.30;18.70;;;6.80;99.90;;;;;;5054446;28;20215;-70
2022/01/29 03:02:58;;;;;;;27.43;16.73;;;6.70;99.90;;;;;;5053316;28;20460;-70
2022/01/29 03:05:24;;;;;;;25.73;17.40;;;6.70;99.90;;;;;;5053412;28;20166;-70
2022/01/29 03:07:49;;;;;;;29.87;18.10;;;6.70;99.90;;;;;;5052872;28;20218;-70
2022/01/29 03:10:15;;;;;;;27.57;17.60;;;6.60;99.90;;;;;;5054255;28;20277;-69
2022/01/29 03:12:41;;;;;;;27.83;17.67;;;6.60;99.90;;;;;;5053087;28;20175;-70
2022/01/29 03:15:09;;;;;;;25.57;16.83;;;6.60;99.90;;;;;;5053077;28;20181;-71
2022/01/29 03:17:35;;;;;;;29.67;17.20;;;6.60;99.90;;;;;;5053238;28;20776;-71
2022/01/29 03:20:00;;;;;;;31.53;17.60;;;6.60;99.90;;;;;;5052882;28;20444;-71
2022/01/29 03:22:26;;;;;;;33.07;17.57;;;6.70;99.90;;;;;;5054088;28;20196;-71
2022/01/29 03:24:51;;;;;;;25.50;17.37;;;6.70;99.90;;;;;;5068893;28;20266;-73
2022/01/29 03:27:17;;;;;;;25.73;16.93;;;6.70;99.90;;;;;;5072626;28;20177;-70
2022/01/29 03:29:43;;;;;;;28.23;18.10;;;6.70;99.90;;;;;;5072962;28;20600;-71
2022/01/29 03:32:09;;;;;;;28.30;17.37;;;6.70;99.90;;;;;;5071394;28;20181;-70
2022/01/29 03:34:35;;;;;;;27.80;17.00;;;6.70;99.90;;;;;;5055570;28;20190;-70
2022/01/29 03:37:01;;;;;;;29.20;16.80;;;6.60;99.90;;;;;;5052242;28;20956;-71
2022/01/29 03:39:28;;;;;;;27.70;16.47;;;6.70;99.90;;;;;;5052627;28;20499;-71
2022/01/29 03:41:59;;;;;;;26.27;17.47;;;6.70;99.90;;;;;;5053094;28;20452;-71
2022/01/29 03:44:24;;;;;;;21.53;14.27;;;6.80;99.90;;;;;;5072527;28;20400;-70
2022/01/29 03:46:50;;;;;;;21.80;15.33;;;6.80;99.90;;;;;;5072385;28;20415;-71
2022/01/29 03:49:15;;;;;;;27.70;18.77;;;6.80;99.90;;;;;;5071748;28;20170;-71
2022/01/29 03:51:41;;;;;;;28.47;16.47;;;6.80;99.90;;;;;;5069753;28;20186;-70
2022/01/29 03:54:06;;;;;;;24.60;16.30;;;6.80;99.90;;;;;;5053386;28;20178;-70
2022/01/29 03:56:33;;;;;;;27.57;17.17;;;6.80;99.90;;;;;;5052161;28;20206;-71
2022/01/29 03:58:58;;;;;;;27.70;15.63;;;6.80;99.90;;;;;;5052394;28;20177;-70
2022/01/29 04:01:24;;;;;;;23.80;14.67;;;6.80;99.90;;;;;;5052345;28;20949;-71
2022/01/29 04:03:49;;;;;;;20.60;15.57;;;6.70;99.90;;;;;;5052997;28;20197;-71
2022/01/29 04:06:15;;;;;;;22.23;14.07;;;6.80;99.90;;;;;;5051897;28;20257;-70
2022/01/29 04:08:42;;;;;;;21.97;14.50;;;6.80;99.90;;;;;;5052133;28;20172;-71
2022/01/29 04:11:11;;;;;;;26.70;14.57;;;6.80;99.90;;;;;;5052040;28;20511;-70
2022/01/29 04:13:38;;;;;;;24.53;16.27;;;6.70;99.90;;;;;;5051890;28;20409;-71
2022/01/29 04:16:04;;;;;;;21.60;15.50;;;6.70;99.90;;;;;;5035063;28;20855;-70
2022/01/29 04:18:29;;;;;;;28.13;17.33;;;6.70;99.90;;;;;;5052020;28;20419;-70
2022/01/29 04:20:55;;;;;;;24.10;15.00;;;6.60;99.90;;;;;;5051699;28;20449;-71
2022/01/29 04:23:20;;;;;;;22.73;14.90;;;6.70;99.90;;;;;;5051986;28;20191;-70
2022/01/29 04:25:46;;;;;;;27.10;17.00;;;6.70;99.90;;;;;;5052715;28;20631;-71
2022/01/29 04:28:13;;;;;;;23.77;16.50;;;6.70;99.90;;;;;;5052016;28;20173;-70
2022/01/29 04:30:45;;;;;;;25.30;15.13;;;6.70;99.90;;;;;;5051815;28;20183;-71
2022/01/29 04:35:49;;;;;;;20.30;14.17;;;6.70;99.90;;;;;;5052462;28;20503;-70
2022/01/29 04:38:15;;;;;;;19.50;12.87;;;6.70;99.90;;;;;;5053368;28;20415;-71
2022/01/29 04:40:42;;;;;;;20.10;12.40;;;6.70;99.90;;;;;;5071408;28;20485;-71
2022/01/29 04:43:07;;;;;;;17.17;12.17;;;6.60;99.90;;;;;;5070605;28;20451;-70
2022/01/29 04:45:33;;;;;;;16.93;12.40;;;6.70;99.90;;;;;;5071287;28;20563;-70
2022/01/29 04:47:59;;;;;;;17.47;12.57;;;6.70;99.90;;;;;;5071337;28;20170;-70
2022/01/29 04:50:25;;;;;;;15.47;11.10;;;6.70;99.90;;;;;;5069656;28;20200;-70
2022/01/29 04:52:50;;;;;;;13.87;10.43;;;6.80;99.90;;;;;;5071567;28;20235;-71
2022/01/29 04:55:16;;;;;;;15.90;10.40;;;6.70;99.90;;;;;;5071472;28;20407;-71
2022/01/29 04:57:41;;;;;;;15.40;11.50;;;6.60;99.90;;;;;;5071409;28;20181;-71
2022/01/29 05:00:20;;;;;;;15.50;10.27;;;6.60;99.90;;;;;;5063207;28;20213;-71
2022/01/29 05:02:50;;;;;;;12.23;9.90;;;6.70;99.90;;;;;;5051376;28;20669;-71
2022/01/29 05:05:16;;;;;;;13.73;9.40;;;6.70;99.90;;;;;;5051238;28;20795;-71
2022/01/29 05:07:41;;;;;;;10.40;8.83;;;6.70;99.90;;;;;;5050990;28;20400;-70
2022/01/29 05:10:07;;;;;;;12.30;9.50;;;6.70;99.90;;;;;;5051266;28;20279;-71
2022/01/29 05:12:46;;;;;;;13.80;10.47;;;6.70;99.90;;;;;;5051105;28;20171;-71
2022/01/29 05:15:27;;;;;;;10.70;8.23;;;6.70;99.90;;;;;;5051229;28;20512;-71
2022/01/29 05:28:49;;;;;;;11.03;8.03;;;6.80;99.90;;;;;;5031597;28;20513;-71
2022/01/29 05:31:15;;;;;;;9.90;8.43;;;6.80;99.90;;;;;;5035205;28;20464;-71
2022/01/29 05:33:40;;;;;;;13.17;9.23;;;6.80;99.90;;;;;;5051319;28;20185;-71
2022/01/29 05:36:06;;;;;;;10.40;9.27;;;6.80;99.90;;;;;;5050575;28;20171;-70
2022/01/29 05:38:32;;;;;;;12.60;8.90;;;6.90;99.90;;;;;;5051093;28;20178;-70
2022/01/29 05:40:58;;;;;;;10.23;8.23;;;6.90;99.90;;;;;;5050978;28;20217;-71
2022/01/29 05:43:23;;;;;;;12.20;8.80;;;6.90;99.90;;;;;;5051905;28;20480;-71
2022/01/29 05:45:49;;;;;;;10.97;8.47;;;7.00;99.90;;;;;;5050674;28;20664;-71
2022/01/29 05:48:15;;;;;;;8.30;7.50;;;7.00;99.90;;;;;;5051345;28;20171;-71
2022/01/29 05:50:41;;;;;;;13.63;8.17;;;7.00;99.90;;;;;;5050846;28;20944;-70
2022/01/29 05:53:06;;;;;;;10.37;8.27;;;6.80;99.90;;;;;;5051913;28;20265;-71
2022/01/29 05:55:32;;;;;;;11.57;8.80;;;6.80;99.90;;;;;;5050748;28;20265;-70
2022/01/29 05:57:57;;;;;;;12.30;9.10;;;6.80;99.90;;;;;;5050687;28;20171;-70
2022/01/29 06:00:23;;;;;;;9.67;8.60;;;6.80;99.90;;;;;;5050594;28;20190;-70
2022/01/29 06:03:03;;;;;;;11.20;9.37;;;6.80;99.90;;;;;;5032830;28;20198;-71
2022/01/29 06:05:29;;;;;;;11.10;9.27;;;6.90;99.90;;;;;;5068778;28;20173;-70
2022/01/29 06:07:55;;;;;;;13.73;10.60;;;6.90;99.90;;;;;;5070634;28;20415;-70
2022/01/29 06:10:20;;;;;;;11.93;9.60;;;6.80;99.90;;;;;;5070670;28;20423;-71
2022/01/29 06:12:57;;;;;;;9.57;8.30;;;6.80;99.90;;;;;;5071935;28;20411;-70
2022/01/29 06:15:22;;;;;;;11.90;9.40;;;6.90;99.90;;;;;;5072625;28;20559;-71
2022/01/29 06:17:48;;;;;;;13.57;10.57;;;6.90;99.90;;;;;;5073988;28;20418;-70
2022/01/29 06:20:13;;;;;;;14.40;10.67;;;6.90;99.90;;;;;;5089808;22;20188;-68
2022/01/29 06:22:41;;;;;;;13.17;10.77;;;6.90;99.90;;;;;;5035191;28;20218;-68
2022/01/29 06:25:07;;;;;;;12.90;10.40;;;6.90;99.90;;;;;;5041396;28;20177;-68
2022/01/29 06:27:32;;;;;;;13.87;11.97;;;6.90;99.90;;;;;;5035881;28;20787;-68
2022/01/29 06:29:58;;;;;;;13.93;11.50;;;6.90;99.90;;;;;;5036248;28;20409;-67
2022/01/29 06:32:23;;;;;;;13.00;10.70;;;7.00;99.90;;;;;;5036410;28;20525;-68
2022/01/29 06:34:49;;;;;;;12.80;11.17;;;6.90;99.90;;;;;;5035858;28;20175;-68
2022/01/29 06:37:14;;;;;;;13.40;10.60;;;6.90;99.90;;;;;;5053561;28;20249;-68
2022/01/29 06:39:40;;;;;;;14.83;11.60;;;6.90;99.90;;;;;;5041598;28;20178;-67
2022/01/29 06:42:05;;;;;;;17.03;11.47;;;7.00;99.90;;;;;;5035862;28;20210;-67
2022/01/29 06:44:31;;;;;;;14.90;11.40;;;7.00;99.90;;;;;;5035677;28;20637;-66
2022/01/29 06:46:56;;;;;;;14.67;11.30;;;6.90;99.90;;;;;;5036068;28;20178;-67
2022/01/29 06:49:22;;;;;;;15.60;11.97;;;7.00;99.90;;;;;;5037254;28;20198;-68
2022/01/29 06:51:47;;;;;;;17.40;11.30;;;7.00;99.90;;;;;;5036357;28;20196;-67
2022/01/29 06:54:13;;;;;;;16.93;11.47;;;7.00;99.90;;;;;;5038163;28;20683;-67
2022/01/29 06:56:39;;;;;;;17.90;12.80;;;7.10;99.90;;;;;;5035990;28;20333;-67
2022/01/29 06:59:04;;;;;;;16.83;13.00;;;7.00;99.90;;;;;;5041317;28;20927;-68
2022/01/29 07:01:30;;;;;;;15.90;13.47;;;7.00;99.90;;;;;;5025419;28;20198;-67
2022/01/29 07:03:55;;;;;;;17.57;13.00;;;7.10;99.90;;;;;;5038610;28;20192;-67
2022/01/29 07:06:21;;;;;;;19.40;13.63;;;7.10;99.90;;;;;;5025540;28;20214;-67
2022/01/29 07:08:47;;;;;;;17.83;12.50;;;7.10;99.90;;;;;;5021581;28;20555;-68
2022/01/29 07:11:13;;;;;;;19.37;13.50;;;7.00;99.90;;;;;;5023936;28;20237;-68
2022/01/29 07:13:38;;;;;;;18.17;14.97;;;7.10;99.90;;;;;;5020125;28;20218;-69
2022/01/29 07:16:04;;;;;;;19.00;14.03;;;7.10;99.90;;;;;;5033237;28;20951;-67
2022/01/29 07:18:30;;;;;;;18.50;14.63;;;7.10;99.90;;;;;;5020534;28;20610;-68
2022/01/29 07:20:55;;;;;;;18.10;14.67;;;7.10;99.90;;;;;;5034121;28;20449;-68
2022/01/29 07:23:21;;;;;;;21.80;15.67;;;7.10;99.90;;;;;;5032988;28;20246;-68
2022/01/29 07:25:46;;;;;;;19.93;15.27;;;7.20;99.90;;;;;;5033512;28;20602;-68
2022/01/29 07:28:12;;;;;;;19.87;14.00;;;7.20;99.90;;;;;;5033347;28;20311;-68
2022/01/29 07:30:37;;;;;;;19.63;15.10;;;7.20;99.90;;;;;;5034051;28;20285;-69
2022/01/29 07:33:03;;;;;;;21.20;16.07;;;7.20;99.90;;;;;;5034066;28;20582;-68
2022/01/29 07:35:28;;;;;;;21.70;17.10;;;7.20;99.90;;;;;;5030117;28;20204;-68
2022/01/29 07:37:54;;;;;;;20.83;16.13;;;7.20;99.90;;;;;;5027047;28;20676;-68
2022/01/29 07:40:19;;;;;;;24.53;16.80;;;7.20;99.90;;;;;;5033801;28;20238;-69
2022/01/29 07:42:45;;;;;;;21.10;16.30;;;7.20;99.90;;;;;;5033744;28;20227;-69
2022/01/29 07:45:11;;;;;;;19.90;16.30;;;7.20;99.90;;;;;;5035415;28;20658;-67
2022/01/29 07:47:36;;;;;;;21.90;15.90;;;7.20;99.90;;;;;;5027936;28;20208;-68
2022/01/29 07:50:04;;;;;;;22.93;17.10;;;7.30;99.90;;;;;;5032459;28;20734;-67
2022/01/29 07:52:31;;;;;;;21.23;16.73;;;7.30;99.90;;;;;;5030851;28;20457;-67
2022/01/29 07:54:57;;;;;;;23.30;17.30;;;7.40;99.90;;;;;;5032554;28;20438;-67
2022/01/29 07:57:22;;;;;;;22.37;17.60;;;7.30;99.90;;;;;;5034367;28;20472;-68
2022/01/29 07:59:48;;;;;;;24.00;17.80;;;7.30;99.90;;;;;;5014389;28;20204;-67
2022/01/29 08:02:14;;;;;;;26.23;18.10;;;7.30;99.90;;;;;;5033062;28;20490;-67
2022/01/29 08:04:39;;;;;;;24.63;18.53;;;7.30;99.90;;;;;;5030392;28;20273;-68
2022/01/29 08:07:05;;;;;;;23.27;18.00;;;7.30;99.90;;;;;;5034691;28;20693;-68
2022/01/29 08:09:30;;;;;;;20.53;16.87;;;7.30;99.90;;;;;;5034148;28;20218;-66
2022/01/29 08:11:56;;;;;;;22.87;17.97;;;7.30;99.90;;;;;;5034112;28;20621;-67
2022/01/29 08:14:21;;;;;;;24.03;17.97;;;7.40;99.90;;;;;;5034136;28;20211;-67
2022/01/29 08:16:47;;;;;;;23.57;17.67;;;7.40;99.90;;;;;;5035759;28;20571;-68
2022/01/29 08:19:12;;;;;;;23.40;18.70;;;7.50;99.90;;;;;;5035034;28;20910;-68
2022/01/29 08:21:38;;;;;;;21.30;18.53;;;7.50;99.90;;;;;;5025964;28;20207;-68
2022/01/29 08:24:08;;;;;;;22.20;18.47;;;7.50;99.90;;;;;;5031614;28;20360;-67
2022/01/29 08:26:34;;;;;;;23.03;17.10;;;7.50;99.90;;;;;;5013834;28;20237;-67
2022/01/29 08:29:00;;;;;;;22.37;16.60;;;7.50;99.90;;;;;;5050319;28;20493;-70
2022/01/29 08:31:25;;;;;;;21.97;17.30;;;7.50;99.90;;;;;;5041660;28;20846;-66
2022/01/29 08:33:51;;;;;;;21.93;17.50;;;7.40;99.90;;;;;;5036716;28;20240;-67
2022/01/29 08:36:16;;;;;;;22.27;18.17;;;7.50;99.90;;;;;;5045834;28;20215;-67
2022/01/29 08:38:42;;;;;;;22.70;17.97;;;7.50;99.90;;;;;;5049525;28;20218;-68
2022/01/29 08:41:07;;;;;;;25.50;17.90;;;7.50;99.90;;;;;;5056822;28;20714;-68
2022/01/29 08:43:33;;;;;;;20.43;16.73;;;7.50;99.90;;;;;;5053806;28;20226;-67
2022/01/29 08:45:59;;;;;;;21.80;16.77;;;7.50;99.90;;;;;;5054046;28;20203;-67
2022/01/29 08:48:25;;;;;;;23.60;17.27;;;7.50;99.90;;;;;;5055958;28;20307;-68
2022/01/29 08:50:50;;;;;;;21.30;16.63;;;7.60;99.90;;;;;;5048028;28;20968;-68
2022/01/29 08:53:19;;;;;;;21.73;17.80;;;7.60;99.90;;;;;;5061757;28;20524;-67
2022/01/29 08:55:45;;;;;;;21.43;17.03;;;7.60;99.90;;;;;;5041850;28;20211;-67
2022/01/29 08:58:11;;;;;;;23.80;17.77;;;7.60;99.90;;;;;;5043960;28;20488;-67
2022/01/29 09:00:40;;;;;;;23.90;17.03;;;7.60;99.90;;;;;;5027284;28;20458;-68
2022/01/29 09:03:06;;;;;;;27.40;17.27;;;7.70;99.90;;;;;;5044414;28;20812;-68
2022/01/29 09:05:32;;;;;;;18.70;16.57;;;7.70;99.90;;;;;;5042526;28;20439;-66
2022/01/29 09:07:58;;;;;;;19.10;15.20;;;7.70;99.90;;;;;;5033629;28;20424;-67
2022/01/29 09:10:26;;;;;;;20.50;16.73;;;7.70;99.90;;;;;;5030427;28;20474;-66
2022/01/29 09:12:51;;;;;;;20.23;16.60;;;7.70;99.90;;;;;;5010212;28;20449;-68
2022/01/29 09:15:17;;;;;;;16.70;14.47;;;7.70;99.90;;;;;;5022916;28;21011;-67
2022/01/29 09:17:42;;;;;;;18.60;15.53;;;7.80;99.90;;;;;;5027636;28;20261;-67
2022/01/29 09:20:09;;;;;;;20.03;15.90;;;7.80;99.90;;;;;;5027724;28;20229;-69
2022/01/29 09:22:35;;;;;;;19.93;15.83;;;7.80;99.90;;;;;;5029730;28;20214;-68
2022/01/29 09:25:01;;;;;;;18.80;14.20;;;7.80;99.90;;;;;;5027319;28;20973;-67
2022/01/29 09:27:27;;;;;;;19.20;15.37;;;7.80;99.90;;;;;;5038377;28;20213;-68
2022/01/29 09:29:52;;;;;;;17.73;14.53;;;7.80;99.90;;;;;;5048053;28;20539;-68
2022/01/29 09:32:18;;;;;;;19.50;14.47;;;7.80;99.90;;;;;;5045919;28;20839;-67
2022/01/29 09:34:43;;;;;;;17.00;13.93;;;7.80;99.90;;;;;;5047719;28;20211;-70
2022/01/29 09:37:09;;;;;;;18.30;14.17;;;7.80;99.90;;;;;;5048069;28;20256;-66
2022/01/29 09:39:34;;;;;;;17.97;13.40;;;7.80;99.90;;;;;;5047972;28;20241;-68
2022/01/29 09:42:01;;;;;;;16.20;13.20;;;7.80;99.90;;;;;;5045516;28;20204;-68
2022/01/29 09:44:27;;;;;;;17.87;13.17;;;7.90;99.90;;;;;;5047726;28;20210;-69
2022/01/29 09:46:53;;;;;;;18.33;14.10;;;7.90;99.90;;;;;;5047385;28;20424;-69
2022/01/29 09:49:19;;;;;;;14.60;12.93;;;7.90;99.90;;;;;;5043051;28;20217;-71
2022/01/29 09:51:44;;;;;;;14.57;13.07;;;8.00;99.90;;;;;;5031732;28;20435;-67
2022/01/29 09:54:10;;;;;;;14.70;13.00;;;7.90;99.90;;;;;;5044800;28;20213;-67
2022/01/29 09:56:36;;;;;;;16.63;14.60;;;8.00;99.90;;;;;;5046732;28;20217;-68
2022/01/29 09:59:02;;;;;;;15.80;13.80;;;8.00;99.90;;;;;;5031903;28;20194;-69
2022/01/29 10:01:28;;;;;;;15.97;14.27;;;8.00;99.90;;;;;;5030919;28;20449;-69
2022/01/29 10:04:05;;;;;;;17.50;14.50;;;8.00;99.90;;;;;;5032228;28;20535;-72
2022/01/29 10:06:31;;;;;;;21.47;14.50;;;8.10;99.90;;;;;;5031007;28;20212;-67
2022/01/29 10:08:59;;;;;;;16.47;13.80;;;8.10;99.90;;;;;;5030913;28;20860;-67
2022/01/29 10:11:26;;;;;;;15.47;14.00;;;8.00;99.90;;;;;;5029763;28;20464;-67
2022/01/29 10:13:58;;;;;;;17.73;13.80;;;8.10;99.90;;;;;;5031369;28;20449;-68
2022/01/29 10:16:26;;;;;;;16.03;13.20;;;8.10;99.90;;;;;;5029210;28;20460;-67
2022/01/29 10:19:02;;;;;;;16.47;14.27;;;8.10;99.90;;;;;;5030972;28;20441;-67
2022/01/29 10:21:29;;;;;;;18.40;13.40;;;8.10;99.90;;;;;;5040039;28;20473;-67
2022/01/29 10:24:07;;;;;;;14.67;13.00;;;8.10;99.90;;;;;;5032400;28;20474;-68
2022/01/29 10:26:38;;;;;;;14.63;13.07;;;8.20;99.90;;;;;;5034095;28;20502;-69
2022/01/29 10:29:08;;;;;;;16.90;13.53;;;8.20;99.90;;;;;;5052269;28;20789;-69
2022/01/29 10:31:41;;;;;;;16.30;13.50;;;8.20;99.90;;;;;;5015323;28;20473;-69
2022/01/29 10:34:18;;;;;;;16.50;14.20;;;8.20;99.90;;;;;;5032542;28;20520;-68
2022/01/29 10:36:44;;;;;;;15.87;14.17;;;8.20;99.90;;;;;;5030900;28;20468;-67
2022/01/29 10:39:10;;;;;;;17.33;13.47;;;8.30;99.90;;;;;;5040556;28;20421;-67
2022/01/29 10:41:35;;;;;;;15.10;12.83;;;8.30;99.90;;;;;;5046868;28;20537;-68
2022/01/29 10:44:20;;;;;;;15.60;13.53;;;8.30;99.90;;;;;;5031294;28;20206;-68
2022/01/29 10:46:55;;;;;;;17.90;13.23;;;8.30;99.90;;;;;;5031511;28;20163;-68
2022/01/29 10:49:23;;;;;;;16.23;14.52;;;8.40;99.90;;;;;;5040318;28;20424;-68
2022/01/29 10:52:05;;;;;;;15.50;13.90;;;8.30;99.90;;;;;;5051155;28;20292;-68
2022/01/29 10:54:33;;;;;;;14.13;12.57;;;8.30;99.90;;;;;;5039946;28;20431;-68
2022/01/29 10:57:01;;;;;;;15.70;13.80;;;8.40;99.90;;;;;;5019850;28;20421;-69
2022/01/29 10:59:28;;;;;;;16.38;14.68;;;8.50;99.90;;;;;;5020708;28;20451;-68
2022/01/29 11:01:57;;;;;;;16.90;14.70;;;8.50;99.90;;;;;;5026599;28;20197;-68
2022/01/29 11:04:25;;;;;;;15.97;14.30;;;8.50;99.90;;;;;;5028479;28;20902;-70
2022/01/29 11:06:51;;;;;;;13.57;12.00;;;8.50;99.90;;;;;;5008674;28;20512;-69
2022/01/29 11:09:18;;;;;;;16.00;13.20;;;8.50;99.90;;;;;;5030320;28;20413;-69
2022/01/29 11:11:45;;;;;;;16.90;12.90;;;8.50;99.90;;;;;;5035571;28;20436;-68
2022/01/29 11:14:13;;;;;;;15.77;13.63;;;8.50;99.90;;;;;;5049866;28;20851;-68
2022/01/29 11:16:39;;;;;;;13.37;11.97;;;8.50;99.90;;;;;;5049997;28;20805;-69
2022/01/29 11:19:06;;;;;;;13.33;11.83;;;8.50;99.90;;;;;;5050032;28;20408;-69
2022/01/29 11:21:33;;;;;;;14.77;12.90;;;8.60;99.90;;;;;;5049629;28;20487;-69
2022/01/29 11:23:59;;;;;;;11.83;10.60;;;8.60;99.90;;;;;;5048713;28;20456;-69
2022/01/29 11:26:28;;;;;;;11.80;10.57;;;8.60;99.90;;;;;;5031526;28;20471;-70
2022/01/29 11:29:25;;;;;;;11.63;10.53;;;8.60;99.90;;;;;;5044338;28;20456;-69
2022/01/29 11:32:21;;;;;;;12.80;11.30;;;8.60;99.90;;;;;;5030120;28;20448;-68
2022/01/29 11:35:22;;;;;;;11.60;10.50;;;8.60;99.90;;;;;;5012302;28;20921;-68
2022/01/29 11:38:03;;;;;;;11.80;10.60;;;8.60;99.90;;;;;;5025240;28;20420;-68
2022/01/29 11:40:39;;;;;;;12.63;11.33;;;8.60;99.90;;;;;;5006580;28;20541;-68
2022/01/29 11:43:18;;;;;;;11.73;10.63;;;8.70;99.90;;;;;;5026307;28;20813;-68
2022/01/29 11:46:15;;;;;;;12.57;11.07;;;8.70;99.90;;;;;;5010802;28;20478;-70
2022/01/29 11:48:56;;;;;;;12.17;10.50;;;8.60;99.90;;;;;;5016029;28;20474;-70
2022/01/29 11:51:47;;;;;;;12.10;11.00;;;8.70;99.90;;;;;;5049655;28;20508;-69
2022/01/29 11:54:24;;;;;;;11.37;10.33;;;8.80;99.90;;;;;;5036213;28;20427;-68
2022/01/29 11:57:07;;;;;;;11.93;10.83;;;8.70;99.90;;;;;;5028126;28;20443;-69
2022/01/29 11:59:34;;;;;;;11.57;10.50;;;8.70;99.90;;;;;;5028694;28;20778;-67
2022/01/29 12:02:03;;;;;;;11.10;9.97;;;8.60;99.90;;;;;;5029134;28;20520;-69
2022/01/29 12:05:00;;;;;;;12.40;11.17;;;8.70;99.90;;;;;;5039823;28;20767;-69
2022/01/29 12:10:03;;;;;;;11.70;10.70;;;8.60;99.90;;;;;;5048425;28;20420;-69
2022/01/29 12:12:30;;;;;;;12.33;11.23;;;8.60;99.90;;;;;;5030955;28;20420;-70
2022/01/29 12:14:57;;;;;;;12.30;11.10;;;8.60;99.90;;;;;;5048589;28;20406;-69
2022/01/29 12:17:34;;;;;;;11.70;10.40;;;8.60;99.90;;;;;;5048581;28;20423;-69
2022/01/29 12:20:02;;;;;;;11.30;10.20;;;8.70;99.90;;;;;;5033195;28;20471;-69
2022/01/29 12:22:31;;;;;;;11.93;10.73;;;8.70;99.90;;;;;;5034313;28;20479;-70
2022/01/29 12:24:59;;;;;;;10.60;9.60;;;8.80;99.90;;;;;;5029176;28;20817;-70
2022/01/29 12:27:41;;;;;;;10.77;9.77;;;8.80;99.90;;;;;;5028068;28;20409;-69
2022/01/29 12:30:08;;;;;;;10.30;9.40;;;8.90;99.90;;;;;;5028960;28;20919;-69
2022/01/29 12:32:33;;;;;;;10.50;9.07;;;8.80;99.90;;;;;;5029504;28;20437;-70
2022/01/29 12:34:59;;;;;;;9.47;8.57;;;8.90;99.90;;;;;;5027523;28;20423;-69
2022/01/29 12:37:25;;;;;;;9.80;8.90;;;8.90;99.90;;;;;;5026658;28;20214;-73
2022/01/29 12:40:07;;;;;;;8.87;7.97;;;8.90;99.90;;;;;;5026005;28;20230;-69
2022/01/29 12:42:43;;;;;;;8.27;7.47;;;8.90;99.90;;;;;;5028228;28;20249;-70
2022/01/29 12:45:10;;;;;;;8.10;7.40;;;8.90;99.90;;;;;;5011413;28;20890;-69
2022/01/29 12:47:36;;;;;;;8.00;7.30;;;8.90;99.90;;;;;;5027993;28;20456;-70
2022/01/29 12:50:03;;;;;;;10.07;8.30;;;9.00;99.90;;;;;;5027958;28;20531;-68
2022/01/29 12:52:29;;;;;;;9.07;8.23;;;9.00;99.90;;;;;;5028183;28;20855;-68
2022/01/29 12:54:59;;;;;;;7.27;6.60;;;9.00;99.90;;;;;;5038858;28;20458;-68
2022/01/29 12:57:46;;;;;;;7.33;6.67;;;9.10;99.90;;;;;;5035437;28;20552;-69